createdAt,value
2022-08-18T00:01:36.760Z,19.35
2022-08-18T00:04:35.831Z,19.40
2022-08-18T00:07:23.538Z,19.39
2022-08-18T00:10:05.331Z,19.32
2022-08-18T00:12:49.299Z,19.28
2022-08-18T00:15:22.671Z,19.28
2022-08-18T00:18:04.343Z,19.25
2022-08-18T00:20:45.795Z,19.25
2022-08-18T00:23:23.708Z,19.14
2022-08-18T00:26:04.750Z,19.11
2022-08-18T00:28:48.364Z,19.13
2022-08-18T00:31:26.534Z,19.02
2022-08-18T00:34:09.827Z,19.03
2022-08-18T00:36:57.940Z,18.89
2022-08-18T00:39:39.814Z,18.91
2022-08-18T00:42:30.989Z,18.84
2022-08-18T00:45:16.557Z,18.86
2022-08-18T00:47:59.876Z,18.76
2022-08-18T00:50:51.550Z,18.82
2022-08-18T00:53:31.629Z,18.80
2022-08-18T00:56:13.704Z,18.83
2022-08-18T00:59:26.001Z,18.57
2022-08-18T01:02:07.701Z,18.71
2022-08-18T01:04:56.704Z,18.62
2022-08-18T01:07:48.854Z,18.59
2022-08-18T01:10:36.366Z,18.57
2022-08-18T01:13:16.056Z,18.75
2022-08-18T01:16:18.545Z,18.68
2022-08-18T01:19:23.216Z,18.61
2022-08-18T01:22:13.030Z,18.63
2022-08-18T01:25:04.263Z,18.58
2022-08-18T01:27:43.327Z,18.56
2022-08-18T01:30:25.655Z,18.54
2022-08-18T01:33:14.801Z,18.48
2022-08-18T01:35:54.019Z,18.41
2022-08-18T01:38:34.703Z,18.36
2022-08-18T01:41:26.572Z,18.38
2022-08-18T01:44:06.436Z,18.52
2022-08-18T01:46:58.075Z,18.42
2022-08-18T01:49:47.336Z,18.21
2022-08-18T01:52:21.217Z,18.19
2022-08-18T01:54:59.342Z,18.14
2022-08-18T01:57:44.629Z,18.20
2022-08-18T02:00:22.317Z,18.22
2022-08-18T02:03:01.796Z,18.35
2022-08-18T02:05:53.127Z,18.36
2022-08-18T02:08:36.340Z,18.27
2022-08-18T02:11:15.492Z,18.27
2022-08-18T02:13:58.344Z,18.23
2022-08-18T02:16:36.853Z,18.20
2022-08-18T02:19:23.383Z,18.19
2022-08-18T02:22:02.233Z,18.27
2022-08-18T02:24:39.729Z,18.37
2022-08-18T02:27:17.995Z,18.41
2022-08-18T02:29:56.718Z,18.49
2022-08-18T02:32:43.829Z,18.37
2022-08-18T02:35:25.786Z,18.31
2022-08-18T02:38:26.507Z,18.23
2022-08-18T02:41:16.821Z,18.14
2022-08-18T02:44:06.380Z,18.07
2022-08-18T02:46:44.719Z,18.02
2022-08-18T02:49:22.695Z,17.99
2022-08-18T02:51:58.205Z,17.98
2022-08-18T02:54:40.363Z,18.04
2022-08-18T02:57:20.034Z,18.06
2022-08-18T03:00:04.320Z,18.03
2022-08-18T03:02:51.714Z,18.02
2022-08-18T03:05:31.331Z,17.96
2022-08-18T03:08:06.653Z,17.94
2022-08-18T03:10:45.382Z,17.95
2022-08-18T03:13:27.351Z,17.93
2022-08-18T03:16:14.384Z,17.90
2022-08-18T03:18:51.558Z,17.84
2022-08-18T03:21:35.792Z,17.83
2022-08-18T03:24:18.015Z,17.78
2022-08-18T03:27:04.373Z,17.70
2022-08-18T03:29:44.418Z,17.61
2022-08-18T03:32:20.440Z,17.64
2022-08-18T03:35:17.683Z,17.56
2022-08-18T03:37:55.815Z,17.61
2022-08-18T03:40:33.627Z,17.48
2022-08-18T03:43:38.893Z,17.40
2022-08-18T03:46:19.096Z,17.45
2022-08-18T03:49:02.629Z,17.45
2022-08-18T03:51:48.854Z,17.41
2022-08-18T03:54:29.586Z,17.40
2022-08-18T03:57:17.563Z,17.47
2022-08-18T03:59:57.903Z,17.46
2022-08-18T04:02:32.527Z,17.45
2022-08-18T04:05:11.559Z,17.40
2022-08-18T04:07:59.373Z,17.41
2022-08-18T04:10:36.810Z,17.47
2022-08-18T04:13:17.530Z,17.49
2022-08-18T04:15:59.541Z,17.45
2022-08-18T04:18:37.700Z,17.66
2022-08-18T04:21:18.578Z,17.65
2022-08-18T04:24:08.330Z,17.56
2022-08-18T04:26:44.146Z,17.72
2022-08-18T04:29:22.777Z,18.03
2022-08-18T04:32:05.371Z,18.35
2022-08-18T04:34:33.577Z,18.45
2022-08-18T04:37:16.142Z,18.49
2022-08-18T04:40:00.474Z,18.51
2022-08-18T04:42:33.504Z,18.62
2022-08-18T04:45:22.541Z,18.75
2022-08-18T04:48:07.503Z,18.85
2022-08-18T04:50:46.419Z,18.93
2022-08-18T04:53:40.121Z,19.04
2022-08-18T04:56:09.807Z,19.01
2022-08-18T04:58:47.598Z,19.14
2022-08-18T05:01:35.929Z,19.13
2022-08-18T05:04:13.668Z,19.34
2022-08-18T05:06:53.244Z,19.64
2022-08-18T05:09:41.360Z,19.94
2022-08-18T05:12:25.978Z,20.13
2022-08-18T05:15:02.191Z,20.36
2022-08-18T05:17:46.349Z,20.57
2022-08-18T05:20:33.540Z,20.95
2022-08-18T05:23:17.363Z,21.22
2022-08-18T05:26:14.957Z,21.51
2022-08-18T05:29:17.931Z,21.83
2022-08-18T05:32:04.419Z,22.19
2022-08-18T05:34:45.732Z,22.52
2022-08-18T05:37:35.712Z,22.91
2022-08-18T05:40:11.631Z,23.17
2022-08-18T05:42:57.610Z,23.55
2022-08-18T05:45:38.349Z,23.93
2022-08-18T05:48:14.181Z,24.29
2022-08-18T05:50:56.616Z,24.69
2022-08-18T05:53:50.989Z,25.08
2022-08-18T05:56:47.259Z,25.39
2022-08-18T05:59:48.399Z,25.78
2022-08-18T06:02:51.840Z,26.08
2022-08-18T06:05:51.149Z,26.46
2022-08-18T06:08:30.500Z,26.79
2022-08-18T06:11:07.375Z,26.92
2022-08-18T06:13:59.209Z,26.83
2022-08-18T06:16:45.425Z,26.84
2022-08-18T06:20:09.251Z,27.06
2022-08-18T06:22:53.257Z,27.29
2022-08-18T06:26:16.598Z,27.32
2022-08-18T06:29:11.570Z,27.28
2022-08-18T06:32:36.273Z,27.79
2022-08-18T06:35:32.442Z,27.76
2022-08-18T06:38:49.010Z,27.87
2022-08-18T06:41:49.110Z,27.80
2022-08-18T06:45:15.761Z,28.46
2022-08-18T06:48:28.407Z,28.68
2022-08-18T06:51:08.857Z,28.51
2022-08-18T06:54:02.360Z,28.84
2022-08-18T06:56:47.091Z,29.24
2022-08-18T06:59:34.164Z,29.30
2022-08-18T07:02:27.254Z,29.42
2022-08-18T07:05:08.519Z,29.37
2022-08-18T07:07:47.967Z,29.40
2022-08-18T07:10:38.229Z,29.66
2022-08-18T07:13:27.201Z,29.68
2022-08-18T07:16:40.606Z,29.48
2022-08-18T07:19:33.899Z,29.89
2022-08-18T07:22:30.037Z,30.18
2022-08-18T07:25:34.443Z,29.81
2022-08-18T07:28:38.735Z,29.81
2022-08-18T07:31:17.821Z,29.77
2022-08-18T07:34:05.332Z,29.86
2022-08-18T07:37:05.750Z,29.58
2022-08-18T07:39:55.817Z,30.11
2022-08-18T07:43:02.006Z,30.37
2022-08-18T07:45:54.274Z,30.23
2022-08-18T07:48:39.542Z,30.43
2022-08-18T07:51:47.955Z,30.42
2022-08-18T07:54:49.400Z,30.20
2022-08-18T07:57:52.413Z,30.52
2022-08-18T08:01:18.909Z,30.32
2022-08-18T08:03:59.695Z,30.59
2022-08-18T08:06:40.389Z,30.79
2022-08-18T08:09:25.695Z,30.85
2022-08-18T08:12:29.923Z,30.83
2022-08-18T08:15:53.440Z,30.99
2022-08-18T08:18:36.024Z,31.50
2022-08-18T08:21:54.505Z,31.73
2022-08-18T08:24:55.088Z,31.67
2022-08-18T08:28:03.045Z,32.21
2022-08-18T08:31:19.049Z,32.12
2022-08-18T08:34:17.403Z,32.33
2022-08-18T08:37:15.506Z,32.32
2022-08-18T08:39:58.058Z,32.04
2022-08-18T08:42:57.652Z,32.20
2022-08-18T08:45:37.204Z,32.60
2022-08-18T08:48:23.959Z,32.38
2022-08-18T08:51:06.873Z,32.81
2022-08-18T08:53:52.428Z,32.87
2022-08-18T08:56:35.773Z,33.28
2022-08-18T08:59:26.019Z,32.92
2022-08-18T09:02:48.495Z,32.97
2022-08-18T09:05:56.767Z,33.02
2022-08-18T09:09:04.379Z,33.27
2022-08-18T09:12:11.031Z,33.61
2022-08-18T09:15:06.861Z,33.57
2022-08-18T09:18:35.094Z,33.76
2022-08-18T09:21:26.574Z,33.93
2022-08-18T09:24:17.780Z,33.91
2022-08-18T09:27:16.178Z,34.22
2022-08-18T09:30:04.376Z,33.67
2022-08-18T09:36:46.180Z,33.24
2022-08-18T09:43:44.491Z,33.49
2022-08-18T09:46:50.863Z,33.24
2022-08-18T09:49:38.056Z,33.62
2022-08-18T09:52:52.134Z,34.26
2022-08-18T09:55:21.504Z,34.14
2022-08-18T09:58:38.316Z,34.25
2022-08-18T10:01:34.588Z,33.96
2022-08-18T10:04:21.901Z,34.03
2022-08-18T10:07:43.200Z,33.92
2022-08-18T10:11:00.755Z,34.28
2022-08-18T10:13:58.987Z,34.04
2022-08-18T10:17:23.613Z,33.80
2022-08-18T10:20:26.562Z,33.85
2022-08-18T10:23:07.585Z,34.08
2022-08-18T10:26:01.416Z,34.28
2022-08-18T10:28:56.417Z,34.12
2022-08-18T10:31:55.256Z,34.36
2022-08-18T10:34:55.509Z,34.01
2022-08-18T10:37:53.615Z,34.22
2022-08-18T10:40:35.162Z,34.42
2022-08-18T10:43:58.112Z,34.27
2022-08-18T10:46:46.918Z,34.47
2022-08-18T10:49:36.963Z,34.82
2022-08-18T10:52:47.163Z,34.40
2022-08-18T10:55:50.335Z,34.76
2022-08-18T10:58:37.584Z,34.79
2022-08-18T11:01:23.240Z,34.94
2022-08-18T11:04:27.519Z,34.83
2022-08-18T11:07:14.769Z,35.09
2022-08-18T11:10:12.943Z,35.31
2022-08-18T11:13:10.897Z,35.90
2022-08-18T11:16:04.428Z,35.98
2022-08-18T11:18:58.289Z,36.13
2022-08-18T11:21:43.744Z,36.35
2022-08-18T11:24:35.451Z,36.53
2022-08-18T11:27:28.873Z,36.60
2022-08-18T11:30:12.115Z,35.99
2022-08-18T11:32:51.515Z,36.35
2022-08-18T11:35:36.403Z,36.41
2022-08-18T11:41:27.496Z,37.02
2022-08-18T11:44:31.649Z,37.35
2022-08-18T11:47:27.983Z,37.07
2022-08-18T11:50:14.741Z,37.28
2022-08-18T11:56:13.276Z,37.52
2022-08-18T11:59:52.245Z,37.13
2022-08-18T12:02:25.509Z,37.40
2022-08-18T12:05:10.259Z,36.98
2022-08-18T12:07:58.011Z,36.76
2022-08-18T12:10:37.033Z,36.83
2022-08-18T12:13:13.297Z,36.42
2022-08-18T12:15:51.181Z,36.76
2022-08-18T12:18:29.772Z,36.53
2022-08-18T12:21:07.471Z,36.58
2022-08-18T12:23:52.284Z,36.85
2022-08-18T12:26:38.783Z,37.43
2022-08-18T12:29:12.998Z,37.16
2022-08-18T12:31:52.483Z,36.91
2022-08-18T12:34:33.845Z,36.88
2022-08-18T12:37:57.538Z,37.09
2022-08-18T12:40:24.418Z,36.90
2022-08-18T12:43:02.099Z,36.96
2022-08-18T12:48:45.811Z,37.65
2022-08-18T12:51:30.461Z,37.50
2022-08-18T12:54:10.399Z,37.72
2022-08-18T12:56:49.449Z,38.16
2022-08-18T12:59:27.421Z,38.22
2022-08-18T13:02:09.774Z,38.54
2022-08-18T13:04:49.126Z,38.61
2022-08-18T13:07:28.356Z,38.74
2022-08-18T13:10:00.094Z,38.09
2022-08-18T13:12:30.337Z,38.55
2022-08-18T13:15:01.605Z,38.59
2022-08-18T13:17:41.397Z,37.79
2022-08-18T13:20:21.490Z,38.35
2022-08-18T13:23:00.130Z,38.25
2022-08-18T13:25:39.677Z,38.41
2022-08-18T13:28:21.174Z,38.95
2022-08-18T13:30:59.694Z,39.36
2022-08-18T13:33:57.481Z,38.97
2022-08-18T13:36:46.153Z,38.91
2022-08-18T13:39:23.515Z,39.14
2022-08-18T13:42:01.156Z,39.18
2022-08-18T13:45:25.202Z,38.83
2022-08-18T13:48:02.516Z,38.16
2022-08-18T13:50:47.130Z,38.43
2022-08-18T13:53:40.564Z,38.74
2022-08-18T13:56:33.304Z,38.14
2022-08-18T13:59:13.193Z,38.03
2022-08-18T14:01:53.006Z,38.62
2022-08-18T14:04:28.327Z,38.50
2022-08-18T14:07:03.182Z,38.55
2022-08-18T14:09:48.581Z,38.62
2022-08-18T14:12:33.201Z,37.82
2022-08-18T14:15:12.367Z,37.87
2022-08-18T14:17:42.892Z,37.67
2022-08-18T14:20:39.800Z,38.34
2022-08-18T14:23:40.167Z,38.73
2022-08-18T14:26:39.796Z,38.90
2022-08-18T14:29:17.606Z,38.36
2022-08-18T14:32:29.068Z,38.46
2022-08-18T14:35:31.954Z,38.20
2022-08-18T14:38:11.803Z,38.72
2022-08-18T14:40:51.818Z,38.92
2022-08-18T14:43:28.780Z,38.72
2022-08-18T14:46:32.556Z,38.90
2022-08-18T14:49:05.348Z,39.11
2022-08-18T14:51:46.446Z,38.43
2022-08-18T14:54:28.627Z,38.11
2022-08-18T14:57:07.426Z,38.66
2022-08-18T14:59:51.595Z,38.31
2022-08-18T15:02:24.404Z,38.09
2022-08-18T15:05:03.035Z,38.58
2022-08-18T15:08:09.123Z,38.59
2022-08-18T15:10:45.110Z,38.70
2022-08-18T15:13:27.663Z,38.98
2022-08-18T15:16:05.643Z,39.13
2022-08-18T15:18:44.094Z,38.90
2022-08-18T15:21:41.070Z,38.73
2022-08-18T15:24:37.669Z,38.94
2022-08-18T15:27:10.266Z,39.07
2022-08-18T15:29:52.371Z,38.94
2022-08-18T15:32:27.780Z,38.98
2022-08-18T15:35:11.744Z,38.91
2022-08-18T15:37:51.367Z,39.04
2022-08-18T15:40:41.371Z,38.87
2022-08-18T15:43:23.433Z,38.85
2022-08-18T15:46:05.591Z,38.58
2022-08-18T15:48:51.951Z,38.75
2022-08-18T15:51:35.486Z,38.71
2022-08-18T15:54:25.392Z,38.42
2022-08-18T15:57:35.321Z,38.53
2022-08-18T16:00:12.914Z,39.21
2022-08-18T16:03:01.895Z,39.27
2022-08-18T16:05:44.027Z,39.54
2022-08-18T16:08:33.421Z,39.74
2022-08-18T16:11:28.317Z,39.21
2022-08-18T16:14:01.707Z,39.58
2022-08-18T16:16:38.865Z,39.80
2022-08-18T16:19:25.683Z,39.88
2022-08-18T16:22:07.417Z,39.83
2022-08-18T16:24:47.855Z,39.89
2022-08-18T16:27:37.674Z,39.70
2022-08-18T16:30:17.349Z,39.49
2022-08-18T16:33:00.516Z,39.52
2022-08-18T16:35:31.362Z,39.37
2022-08-18T16:38:16.785Z,39.35
2022-08-18T16:40:52.375Z,39.45
2022-08-18T16:43:27.184Z,39.36
2022-08-18T16:46:10.621Z,39.15
2022-08-18T16:48:50.968Z,38.94
2022-08-18T16:51:38.091Z,38.65
2022-08-18T16:54:18.764Z,38.47
2022-08-18T16:56:56.829Z,38.06
2022-08-18T16:59:45.054Z,37.73
2022-08-18T17:02:36.982Z,37.30
2022-08-18T17:05:15.791Z,36.90
2022-08-18T17:07:51.803Z,36.04
2022-08-18T17:10:38.641Z,34.78
2022-08-18T17:13:14.582Z,34.30
2022-08-18T17:15:52.982Z,33.80
2022-08-18T17:18:35.832Z,33.42
2022-08-18T17:21:18.971Z,32.12
2022-08-18T17:23:52.236Z,31.69
2022-08-18T17:27:26.265Z,31.48
2022-08-18T17:30:18.765Z,31.53
2022-08-18T17:33:00.748Z,31.58
2022-08-18T17:35:43.365Z,31.43
2022-08-18T17:38:29.973Z,31.27
2022-08-18T17:41:11.049Z,31.06
2022-08-18T17:43:54.618Z,30.83
2022-08-18T17:46:43.795Z,30.56
2022-08-18T17:49:54.387Z,30.45
2022-08-18T17:52:56.171Z,30.31
2022-08-18T17:55:45.190Z,30.23
2022-08-18T17:59:42.820Z,30.11
2022-08-18T18:02:39.162Z,30.14
2022-08-18T18:05:20.402Z,30.18
2022-08-18T18:08:01.825Z,30.20
2022-08-18T18:13:57.524Z,30.13
2022-08-18T18:16:38.746Z,30.08
2022-08-18T18:19:33.576Z,30.05
2022-08-18T18:22:23.093Z,29.96
2022-08-18T18:25:04.471Z,29.84
2022-08-18T18:27:50.574Z,29.75
2022-08-18T18:30:37.009Z,29.68
2022-08-18T18:33:31.803Z,29.61
2022-08-18T18:36:05.454Z,29.47
2022-08-18T18:38:48.891Z,29.35
2022-08-18T18:41:36.891Z,29.25
2022-08-18T18:44:17.390Z,29.28
2022-08-18T18:47:14.763Z,29.15
2022-08-18T18:49:53.474Z,29.07
2022-08-18T18:52:47.993Z,28.88
2022-08-18T18:55:27.210Z,28.66
2022-08-18T18:58:37.018Z,28.42
2022-08-18T19:01:20.460Z,28.16
2022-08-18T19:04:18.459Z,28.00
2022-08-18T19:07:22.674Z,27.74
2022-08-18T19:09:57.516Z,27.97
2022-08-18T19:12:46.801Z,27.95
2022-08-18T19:15:28.725Z,27.96
2022-08-18T19:18:10.625Z,28.09
2022-08-18T19:22:04.197Z,28.09
2022-08-18T19:24:23.948Z,28.17
2022-08-18T19:27:00.351Z,28.27
2022-08-18T19:29:52.177Z,28.29
2022-08-18T19:32:37.647Z,28.26
2022-08-18T19:35:12.537Z,28.22
2022-08-18T19:38:20.878Z,28.27
2022-08-18T19:41:31.008Z,28.30
2022-08-18T19:44:18.021Z,28.36
2022-08-18T19:46:57.495Z,28.30
2022-08-18T19:50:07.353Z,28.29
2022-08-18T19:53:04.512Z,28.28
2022-08-18T19:56:05.159Z,28.23
2022-08-18T19:59:21.472Z,28.18
2022-08-18T20:02:37.816Z,28.22
2022-08-18T20:05:22.878Z,28.19
2022-08-18T20:08:12.648Z,28.20
2022-08-18T20:11:12.534Z,28.22
2022-08-18T20:13:56.892Z,28.09
2022-08-18T20:16:46.351Z,28.10
2022-08-18T20:20:26.837Z,28.04
2022-08-18T20:23:37.635Z,27.96
2022-08-18T20:26:45.311Z,28.00
2022-08-18T20:29:46.439Z,27.92
2022-08-18T20:32:41.196Z,27.73
2022-08-18T20:35:29.654Z,27.79
2022-08-18T20:38:31.990Z,27.63
2022-08-18T20:41:39.859Z,27.64
2022-08-18T20:44:28.722Z,27.54
2022-08-18T20:47:19.548Z,27.53
2022-08-18T20:50:31.689Z,27.45
2022-08-18T20:53:08.908Z,27.38
2022-08-18T20:55:50.629Z,27.37
2022-08-18T20:58:37.033Z,27.27
2022-08-18T21:01:12.082Z,27.26
2022-08-18T21:03:59.482Z,27.28
2022-08-18T21:06:44.387Z,27.23
2022-08-18T21:09:33.477Z,27.14
2022-08-18T21:12:06.395Z,27.09
2022-08-18T21:14:39.245Z,27.05
2022-08-18T21:17:32.642Z,27.03
2022-08-18T21:20:09.057Z,27.08
2022-08-18T21:22:45.884Z,26.96
2022-08-18T21:25:20.953Z,26.96
2022-08-18T21:28:07.700Z,26.80
2022-08-18T21:30:40.570Z,26.74
2022-08-18T21:33:28.865Z,26.70
2022-08-18T21:36:23.453Z,26.59
2022-08-18T21:39:16.091Z,26.58
2022-08-18T21:42:06.008Z,26.51
2022-08-18T21:44:46.584Z,26.46
2022-08-18T21:47:29.658Z,26.45
2022-08-18T21:50:27.549Z,26.31
2022-08-18T21:53:20.043Z,26.15
2022-08-18T21:55:58.952Z,26.05
2022-08-18T21:58:49.919Z,26.07
2022-08-18T22:01:40.181Z,26.06
2022-08-18T22:04:24.424Z,25.97
2022-08-18T22:07:06.019Z,25.88
2022-08-18T22:10:31.620Z,25.94
2022-08-18T22:13:22.176Z,25.83
2022-08-18T22:16:02.648Z,25.79
2022-08-18T22:18:54.146Z,25.81
2022-08-18T22:22:26.896Z,25.71
2022-08-18T22:25:07.682Z,25.65
2022-08-18T22:27:54.078Z,25.55
2022-08-18T22:30:44.413Z,25.41
2022-08-18T22:33:29.992Z,25.39
2022-08-18T22:36:10.047Z,25.31
2022-08-18T22:38:56.019Z,25.29
2022-08-18T22:41:42.362Z,25.26
2022-08-18T22:44:22.892Z,25.10
2022-08-18T22:47:08.829Z,25.01
2022-08-18T22:49:50.173Z,24.90
2022-08-18T22:52:34.681Z,24.88
2022-08-18T22:55:14.143Z,24.83
2022-08-18T22:57:51.839Z,24.84
2022-08-18T23:00:32.450Z,24.81
2022-08-18T23:03:18.477Z,24.72
2022-08-18T23:06:07.288Z,24.63
2022-08-18T23:08:55.375Z,24.67
2022-08-18T23:11:31.515Z,24.61
2022-08-18T23:14:14.467Z,24.59
2022-08-18T23:16:54.362Z,24.61
2022-08-18T23:19:34.487Z,24.50
2022-08-18T23:22:15.369Z,24.42
2022-08-18T23:25:00.008Z,24.33
2022-08-18T23:27:42.623Z,24.26
2022-08-18T23:30:30.272Z,24.19
2022-08-18T23:33:11.482Z,24.04
2022-08-18T23:36:01.055Z,24.04
2022-08-18T23:38:42.949Z,23.91
2022-08-18T23:41:23.367Z,23.86
2022-08-18T23:44:09.359Z,23.89
2022-08-18T23:46:46.660Z,23.88
2022-08-18T23:49:28.900Z,23.97
2022-08-18T23:52:08.541Z,23.93
2022-08-18T23:54:39.163Z,23.85
2022-08-18T23:57:19.781Z,23.91
